Airport View

Enter AWOS ICAO identifier for current METAR.

ex. KFNL

KAKR 280154Z AUTO 19005KT 10SM CLR 21/16 A2983 RMK AO2 SLP094 T02060156

28 Sep 2020 02:30

Frequency: 126.825

Phone: 330-724-4237

Other Area AWOS: KCAK - KPOV - KBJJ - KCLE

TAF KCAK 272335Z 2800/2824 21008KT P6SM SCT250 FM280600 18006KT P6SM SCT060 FM282000 18012G20KT P6SM BKN060 FM282200 19012G20KT P6SM VCSH OVC035